ANZ568 YMHB-YSSY
Flight info
| Callsign | ANZ568 |
|---|---|
| Flight time | 1h 30m |
| Altitude | 35000 |
| Route | TASUM H111 LT W218 VIMAP Y327 MAKRL/N0447F360 J163 CB/N0445F350 W423 CULIN Y59 RIVET |
| Aircraft | A321/M-SDE3FGHIRWY/LB1 |
Departure
| Time | 2026-05-08 07:30 |
|---|---|
| Airport | Hobart International Airport (YMHB) |
Arrival
| Time | 2026-05-08 09:00 |
|---|---|
| Airport | Sydney Kingsford Smith International Airport (YSSY) |
| Time | Latitude | Longitude | Altitude | Speed | Heading |
|---|---|---|---|---|---|
| 2026-05-08 06:45 | -42.83726 | 147.50660 | 28 ft | 0 kts | 225° |
| 2026-05-08 07:19 | -42.83716 | 147.50673 | 27 ft | 4 kts | 229° |
| 2026-05-08 07:20 | -42.83702 | 147.50702 | 27 ft | 4 kts | 252° |
| 2026-05-08 07:20 | -42.83700 | 147.50734 | 27 ft | 4 kts | 302° |
| 2026-05-08 07:20 | -42.83704 | 147.50742 | 27 ft | 0 kts | 314° |
| 2026-05-08 07:23 | -42.83692 | 147.50725 | 27 ft | 4 kts | 314° |
| 2026-05-08 07:23 | -42.83669 | 147.50694 | 27 ft | 5 kts | 314° |
| 2026-05-08 07:23 | -42.83638 | 147.50662 | 27 ft | 6 kts | 344° |
| 2026-05-08 07:24 | -42.83599 | 147.50678 | 27 ft | 7 kts | 31° |
| 2026-05-08 07:24 | -42.83552 | 147.50689 | 27 ft | 7 kts | 340° |
| 2026-05-08 07:24 | -42.83509 | 147.50643 | 27 ft | 8 kts | 316° |
| 2026-05-08 07:24 | -42.83466 | 147.50584 | 27 ft | 8 kts | 315° |
| 2026-05-08 07:25 | -42.83418 | 147.50547 | 27 ft | 8 kts | 4° |
| 2026-05-08 07:25 | -42.83370 | 147.50587 | 27 ft | 9 kts | 46° |
| 2026-05-08 07:25 | -42.83263 | 147.50666 | 27 ft | 10 kts | 330° |
| 2026-05-08 07:26 | -42.83211 | 147.50603 | 27 ft | 11 kts | 314° |
| 2026-05-08 07:26 | -42.83158 | 147.50529 | 27 ft | 11 kts | 314° |
| 2026-05-08 07:26 | -42.83099 | 147.50448 | 27 ft | 12 kts | 314° |
| 2026-05-08 07:26 | -42.83037 | 147.50363 | 27 ft | 13 kts | 314° |
| 2026-05-08 07:27 | -42.82975 | 147.50274 | 27 ft | 13 kts | 309° |
| 2026-05-08 07:27 | -42.82947 | 147.50168 | 27 ft | 12 kts | 287° |
| 2026-05-08 07:27 | -42.82919 | 147.50092 | 27 ft | 9 kts | 308° |
| 2026-05-08 07:27 | -42.82869 | 147.50089 | 27 ft | 8 kts | 65° |
| 2026-05-08 07:28 | -42.82893 | 147.50160 | 27 ft | 9 kts | 131° |
| 2026-05-08 07:28 | -42.82915 | 147.50194 | 27 ft | 0 kts | 134° |
| 2026-05-08 07:29 | -42.82984 | 147.50289 | 28 ft | 50 kts | 135° |
| 2026-05-08 07:29 | -42.83424 | 147.50900 | 28 ft | 128 kts | 136° |
| 2026-05-08 07:29 | -42.84192 | 147.51965 | 101 ft | 178 kts | 135° |
| 2026-05-08 07:30 | -42.85099 | 147.53147 | 736 ft | 181 kts | 138° |
| 2026-05-08 07:30 | -42.85909 | 147.54377 | 1709 ft | 168 kts | 128° |
| 2026-05-08 07:30 | -42.86327 | 147.55801 | 2461 ft | 162 kts | 97° |
| 2026-05-08 07:30 | -42.86100 | 147.57435 | 2582 ft | 193 kts | 50° |
| 2026-05-08 07:31 | -42.84975 | 147.58336 | 2889 ft | 194 kts | 352° |
| 2026-05-08 07:31 | -42.83803 | 147.57665 | 3146 ft | 184 kts | 304° |
| 2026-05-08 07:31 | -42.82932 | 147.56407 | 3684 ft | 182 kts | 306° |
| 2026-05-08 07:31 | -42.81994 | 147.55158 | 4031 ft | 195 kts | 309° |
| 2026-05-08 07:32 | -42.81031 | 147.53789 | 4333 ft | 204 kts | 300° |
| 2026-05-08 07:32 | -42.80192 | 147.52156 | 4652 ft | 219 kts | 300° |
| 2026-05-08 07:32 | -42.78905 | 147.50829 | 4872 ft | 253 kts | 335° |
| 2026-05-08 07:32 | -42.77101 | 147.50451 | 5185 ft | 276 kts | 354° |
| 2026-05-08 07:33 | -42.75142 | 147.50347 | 5654 ft | 287 kts | 351° |
| 2026-05-08 07:33 | -42.73139 | 147.49956 | 6212 ft | 294 kts | 344° |
| 2026-05-08 07:33 | -42.71093 | 147.49363 | 6655 ft | 308 kts | 343° |
| 2026-05-08 07:33 | -42.68930 | 147.48743 | 6979 ft | 327 kts | 345° |
| 2026-05-08 07:34 | -42.66635 | 147.48160 | 7340 ft | 343 kts | 346° |
| 2026-05-08 07:34 | -42.64232 | 147.47597 | 7743 ft | 356 kts | 346° |
| 2026-05-08 07:34 | -42.61760 | 147.47031 | 8310 ft | 363 kts | 347° |
| 2026-05-08 07:34 | -42.59263 | 147.46442 | 8960 ft | 366 kts | 346° |
| 2026-05-08 07:35 | -42.56741 | 147.45824 | 9528 ft | 372 kts | 346° |
| 2026-05-08 07:35 | -42.54169 | 147.45187 | 9981 ft | 379 kts | 346° |
| 2026-05-08 07:35 | -42.51566 | 147.44550 | 10606 ft | 382 kts | 346° |
| 2026-05-08 07:35 | -42.48935 | 147.43914 | 11188 ft | 386 kts | 346° |
| 2026-05-08 07:36 | -42.46272 | 147.43272 | 11740 ft | 391 kts | 346° |
| 2026-05-08 07:36 | -42.43578 | 147.42620 | 12279 ft | 396 kts | 347° |
| 2026-05-08 07:36 | -42.40850 | 147.41959 | 12834 ft | 400 kts | 347° |
| 2026-05-08 07:36 | -42.38096 | 147.41291 | 13385 ft | 404 kts | 347° |
| 2026-05-08 07:37 | -42.35314 | 147.40618 | 13921 ft | 408 kts | 347° |
| 2026-05-08 07:37 | -42.32504 | 147.39940 | 14452 ft | 412 kts | 347° |
| 2026-05-08 07:37 | -42.29670 | 147.39256 | 14961 ft | 416 kts | 347° |
| 2026-05-08 07:37 | -42.26809 | 147.38568 | 15468 ft | 419 kts | 347° |
| 2026-05-08 07:38 | -42.23922 | 147.37875 | 15959 ft | 423 kts | 347° |
| 2026-05-08 07:38 | -42.21050 | 147.37184 | 16435 ft | 427 kts | 347° |
| 2026-05-08 07:38 | -42.18110 | 147.36477 | 16917 ft | 430 kts | 347° |
| 2026-05-08 07:38 | -42.15154 | 147.35768 | 17370 ft | 434 kts | 347° |
| 2026-05-08 07:39 | -42.12172 | 147.35054 | 17833 ft | 437 kts | 347° |
| 2026-05-08 07:39 | -42.09166 | 147.34335 | 18270 ft | 440 kts | 347° |
| 2026-05-08 07:39 | -42.06142 | 147.33612 | 18709 ft | 443 kts | 347° |
| 2026-05-08 07:39 | -42.03092 | 147.32882 | 19143 ft | 446 kts | 347° |
| 2026-05-08 07:40 | -42.00023 | 147.32145 | 19559 ft | 449 kts | 347° |
| 2026-05-08 07:40 | -41.96934 | 147.31405 | 19970 ft | 452 kts | 347° |
| 2026-05-08 07:40 | -41.93814 | 147.30661 | 20377 ft | 455 kts | 347° |
| 2026-05-08 07:40 | -41.90684 | 147.29917 | 20779 ft | 458 kts | 347° |
| 2026-05-08 07:41 | -41.87531 | 147.29166 | 21165 ft | 461 kts | 347° |
| 2026-05-08 07:41 | -41.84363 | 147.28412 | 21544 ft | 464 kts | 347° |
| 2026-05-08 07:41 | -41.81177 | 147.27655 | 21915 ft | 466 kts | 347° |
| 2026-05-08 07:41 | -41.77968 | 147.26895 | 22269 ft | 469 kts | 347° |
| 2026-05-08 07:42 | -41.74747 | 147.26131 | 22625 ft | 472 kts | 347° |
| 2026-05-08 07:42 | -41.71535 | 147.25370 | 22968 ft | 474 kts | 347° |
| 2026-05-08 07:42 | -41.68269 | 147.24596 | 23303 ft | 477 kts | 347° |
| 2026-05-08 07:42 | -41.64996 | 147.23823 | 23633 ft | 479 kts | 347° |
| 2026-05-08 07:43 | -41.61705 | 147.23047 | 23945 ft | 482 kts | 347° |
| 2026-05-08 07:43 | -41.58391 | 147.22266 | 24268 ft | 483 kts | 347° |
| 2026-05-08 07:43 | -41.55070 | 147.21512 | 24587 ft | 486 kts | 350° |
| 2026-05-08 07:43 | -41.51668 | 147.21200 | 24889 ft | 490 kts | 357° |
| 2026-05-08 07:44 | -41.48255 | 147.21107 | 25178 ft | 492 kts | 358° |
| 2026-05-08 07:44 | -41.44818 | 147.21099 | 25463 ft | 495 kts | 359° |
| 2026-05-08 07:44 | -41.41413 | 147.21111 | 25746 ft | 497 kts | 359° |
| 2026-05-08 07:44 | -41.40214 | 147.21109 | 25839 ft | 497 kts | 359° |
| 2026-05-08 07:45 | -41.37519 | 147.21084 | 26056 ft | 499 kts | 358° |
| 2026-05-08 07:45 | -41.34039 | 147.21011 | 26331 ft | 501 kts | 358° |
| 2026-05-08 07:45 | -41.30546 | 147.20918 | 26602 ft | 502 kts | 358° |
| 2026-05-08 07:45 | -41.27037 | 147.20834 | 26845 ft | 505 kts | 358° |
| 2026-05-08 07:46 | -41.23516 | 147.20771 | 27102 ft | 507 kts | 358° |
| 2026-05-08 07:46 | -41.19979 | 147.20726 | 27355 ft | 508 kts | 358° |
| 2026-05-08 07:46 | -41.16433 | 147.20684 | 27589 ft | 510 kts | 358° |
| 2026-05-08 07:46 | -41.12875 | 147.20629 | 27824 ft | 512 kts | 358° |
| 2026-05-08 07:47 | -41.09313 | 147.20564 | 28054 ft | 514 kts | 358° |
| 2026-05-08 07:47 | -41.05777 | 147.20495 | 28272 ft | 515 kts | 358° |
| 2026-05-08 07:47 | -41.02186 | 147.20431 | 28498 ft | 517 kts | 358° |
| 2026-05-08 07:47 | -40.98574 | 147.20373 | 28706 ft | 519 kts | 358° |
| 2026-05-08 07:48 | -40.94962 | 147.20317 | 28904 ft | 520 kts | 358° |
| 2026-05-08 07:48 | -40.91334 | 147.20258 | 29158 ft | 520 kts | 358° |
| 2026-05-08 07:48 | -40.87706 | 147.20198 | 29413 ft | 521 kts | 358° |
| 2026-05-08 07:48 | -40.84090 | 147.20137 | 29710 ft | 520 kts | 358° |
| 2026-05-08 07:49 | -40.80461 | 147.20076 | 29954 ft | 520 kts | 358° |
| 2026-05-08 07:49 | -40.78064 | 147.20036 | 30134 ft | 519 kts | 358° |
| 2026-05-08 07:49 | -40.74451 | 147.19976 | 30396 ft | 519 kts | 358° |
| 2026-05-08 07:49 | -40.70839 | 147.19915 | 30648 ft | 519 kts | 358° |
| 2026-05-08 07:50 | -40.67229 | 147.20062 | 30862 ft | 520 kts | 6° |
| 2026-05-08 07:50 | -40.63696 | 147.21024 | 31090 ft | 519 kts | 19° |
| 2026-05-08 07:50 | -40.60350 | 147.22770 | 31324 ft | 517 kts | 26° |
| 2026-05-08 07:50 | -40.57087 | 147.24753 | 31528 ft | 517 kts | 28° |
| 2026-05-08 07:51 | -40.53848 | 147.26801 | 31773 ft | 516 kts | 28° |
| 2026-05-08 07:51 | -40.50600 | 147.28811 | 32009 ft | 516 kts | 27° |
| 2026-05-08 07:51 | -40.47321 | 147.30739 | 32192 ft | 517 kts | 25° |
| 2026-05-08 07:51 | -40.44009 | 147.32612 | 32378 ft | 518 kts | 25° |
| 2026-05-08 07:52 | -40.40697 | 147.34473 | 32610 ft | 517 kts | 25° |
| 2026-05-08 07:52 | -40.37399 | 147.36365 | 32832 ft | 517 kts | 26° |
| 2026-05-08 07:52 | -40.34119 | 147.38290 | 33053 ft | 516 kts | 26° |
| 2026-05-08 07:52 | -40.30839 | 147.40235 | 33216 ft | 517 kts | 26° |
| 2026-05-08 07:53 | -40.27560 | 147.42165 | 33419 ft | 517 kts | 26° |
| 2026-05-08 07:53 | -40.24264 | 147.44076 | 33624 ft | 517 kts | 25° |
| 2026-05-08 07:53 | -40.20970 | 147.45966 | 33796 ft | 518 kts | 25° |
| 2026-05-08 07:53 | -40.17672 | 147.47858 | 33984 ft | 517 kts | 25° |
| 2026-05-08 07:54 | -40.14422 | 147.49733 | 34176 ft | 517 kts | 26° |
| 2026-05-08 07:54 | -40.11138 | 147.51638 | 34376 ft | 516 kts | 26° |
| 2026-05-08 07:54 | -40.07858 | 147.53541 | 34590 ft | 515 kts | 26° |
| 2026-05-08 07:54 | -40.04577 | 147.55434 | 34775 ft | 515 kts | 26° |
| 2026-05-08 07:55 | -40.01299 | 147.57315 | 34987 ft | 514 kts | 26° |
| 2026-05-08 07:55 | -39.98023 | 147.59192 | 35144 ft | 514 kts | 26° |
| 2026-05-08 07:55 | -39.94761 | 147.61063 | 35153 ft | 512 kts | 26° |
| 2026-05-08 07:56 | -39.88235 | 147.64813 | 35160 ft | 513 kts | 26° |
| 2026-05-08 07:56 | -39.81697 | 147.68559 | 35163 ft | 513 kts | 26° |
| 2026-05-08 07:57 | -39.75155 | 147.72288 | 35166 ft | 512 kts | 25° |
| 2026-05-08 07:57 | -39.68656 | 147.75995 | 35175 ft | 512 kts | 26° |
| 2026-05-08 07:58 | -39.62129 | 147.79711 | 35185 ft | 512 kts | 25° |
| 2026-05-08 07:58 | -39.55597 | 147.83415 | 35155 ft | 512 kts | 25° |
| 2026-05-08 07:59 | -39.49055 | 147.87122 | 35141 ft | 512 kts | 25° |
| 2026-05-08 07:59 | -39.42517 | 147.90820 | 35131 ft | 513 kts | 25° |
| 2026-05-08 08:00 | -39.36006 | 147.94494 | 35131 ft | 513 kts | 25° |
| 2026-05-08 08:00 | -39.29468 | 147.98171 | 35175 ft | 512 kts | 25° |
| 2026-05-08 08:01 | -39.22938 | 148.01838 | 35170 ft | 512 kts | 25° |
| 2026-05-08 08:01 | -39.16387 | 148.05516 | 35135 ft | 513 kts | 25° |
| 2026-05-08 08:02 | -39.09872 | 148.09161 | 35147 ft | 514 kts | 25° |
| 2026-05-08 08:02 | -39.03296 | 148.12828 | 35155 ft | 515 kts | 25° |
| 2026-05-08 08:03 | -38.96729 | 148.16486 | 35193 ft | 514 kts | 25° |
| 2026-05-08 08:03 | -38.90154 | 148.20147 | 35235 ft | 514 kts | 24° |
| 2026-05-08 08:04 | -38.83595 | 148.23787 | 35244 ft | 514 kts | 24° |
| 2026-05-08 08:04 | -38.77019 | 148.27431 | 35239 ft | 514 kts | 24° |
| 2026-05-08 08:05 | -38.70444 | 148.31065 | 35231 ft | 514 kts | 24° |
| 2026-05-08 08:05 | -38.63875 | 148.34684 | 35162 ft | 515 kts | 24° |
| 2026-05-08 08:06 | -38.57344 | 148.38282 | 35192 ft | 513 kts | 24° |
| 2026-05-08 08:06 | -38.50778 | 148.41848 | 35172 ft | 513 kts | 20° |
| 2026-05-08 08:07 | -38.43856 | 148.44052 | 35178 ft | 511 kts | 9° |
| 2026-05-08 08:07 | -38.36853 | 148.45682 | 35175 ft | 511 kts | 9° |
| 2026-05-08 08:08 | -38.29855 | 148.47368 | 35163 ft | 512 kts | 10° |
| 2026-05-08 08:08 | -38.22857 | 148.49167 | 35172 ft | 513 kts | 10° |
| 2026-05-08 08:09 | -38.15901 | 148.50896 | 35211 ft | 512 kts | 9° |
| 2026-05-08 08:09 | -38.08902 | 148.52608 | 35231 ft | 512 kts | 9° |
| 2026-05-08 08:10 | -38.01890 | 148.54352 | 35247 ft | 512 kts | 9° |
| 2026-05-08 08:10 | -37.94887 | 148.56084 | 35258 ft | 512 kts | 9° |
| 2026-05-08 08:11 | -37.87912 | 148.57798 | 35261 ft | 510 kts | 9° |
| 2026-05-08 08:11 | -37.80968 | 148.59509 | 35250 ft | 507 kts | 9° |
| 2026-05-08 08:12 | -37.74099 | 148.61195 | 35211 ft | 505 kts | 9° |
| 2026-05-08 08:12 | -37.67215 | 148.62877 | 35202 ft | 503 kts | 9° |
| 2026-05-08 08:13 | -37.60344 | 148.64558 | 35196 ft | 503 kts | 9° |
| 2026-05-08 08:13 | -37.53462 | 148.66239 | 35195 ft | 504 kts | 9° |
| 2026-05-08 08:14 | -37.46561 | 148.67921 | 35193 ft | 505 kts | 8° |
| 2026-05-08 08:14 | -37.39629 | 148.69605 | 35193 ft | 507 kts | 8° |
| 2026-05-08 08:15 | -37.32743 | 148.71277 | 35246 ft | 507 kts | 8° |
| 2026-05-08 08:15 | -37.25821 | 148.72956 | 35275 ft | 506 kts | 8° |
| 2026-05-08 08:16 | -37.18911 | 148.74626 | 35275 ft | 504 kts | 8° |
| 2026-05-08 08:16 | -37.12044 | 148.76283 | 35268 ft | 501 kts | 8° |
| 2026-05-08 08:17 | -37.05222 | 148.77928 | 35230 ft | 498 kts | 8° |
| 2026-05-08 08:17 | -36.98430 | 148.79557 | 35189 ft | 496 kts | 8° |
| 2026-05-08 08:18 | -36.91659 | 148.81184 | 35178 ft | 496 kts | 8° |
| 2026-05-08 08:18 | -36.84873 | 148.82811 | 35180 ft | 496 kts | 8° |
| 2026-05-08 08:19 | -36.78075 | 148.84434 | 35176 ft | 498 kts | 8° |
| 2026-05-08 08:19 | -36.71260 | 148.86061 | 35177 ft | 499 kts | 8° |
| 2026-05-08 08:20 | -36.64474 | 148.87677 | 35209 ft | 500 kts | 8° |
| 2026-05-08 08:20 | -36.57648 | 148.89301 | 35267 ft | 499 kts | 8° |
| 2026-05-08 08:21 | -36.50821 | 148.90922 | 35258 ft | 498 kts | 7° |
| 2026-05-08 08:21 | -36.44019 | 148.92535 | 35257 ft | 497 kts | 7° |
| 2026-05-08 08:22 | -36.37226 | 148.94144 | 35243 ft | 496 kts | 7° |
| 2026-05-08 08:22 | -36.30447 | 148.95742 | 35202 ft | 495 kts | 7° |
| 2026-05-08 08:23 | -36.23672 | 148.97340 | 35164 ft | 495 kts | 7° |
| 2026-05-08 08:23 | -36.16901 | 148.98933 | 35168 ft | 495 kts | 7° |
| 2026-05-08 08:24 | -36.10164 | 149.00517 | 35163 ft | 496 kts | 7° |
| 2026-05-08 08:24 | -36.03354 | 149.02113 | 35172 ft | 497 kts | 7° |
| 2026-05-08 08:25 | -35.96561 | 149.03704 | 35232 ft | 496 kts | 6° |
| 2026-05-08 08:25 | -35.89785 | 149.05289 | 35251 ft | 494 kts | 6° |
| 2026-05-08 08:26 | -35.83042 | 149.06860 | 35247 ft | 491 kts | 6° |
| 2026-05-08 08:26 | -35.76354 | 149.08419 | 35227 ft | 487 kts | 6° |
| 2026-05-08 08:27 | -35.69756 | 149.09953 | 35185 ft | 484 kts | 6° |
| 2026-05-08 08:27 | -35.63138 | 149.11487 | 35161 ft | 483 kts | 6° |
| 2026-05-08 08:28 | -35.56523 | 149.13016 | 35074 ft | 483 kts | 6° |
| 2026-05-08 08:28 | -35.53218 | 149.13781 | 34713 ft | 484 kts | 6° |
| 2026-05-08 08:28 | -35.49920 | 149.14545 | 34451 ft | 485 kts | 6° |
| 2026-05-08 08:28 | -35.46589 | 149.15312 | 34207 ft | 487 kts | 6° |
| 2026-05-08 08:29 | -35.43290 | 149.16074 | 33964 ft | 488 kts | 6° |
| 2026-05-08 08:29 | -35.39945 | 149.16848 | 33718 ft | 490 kts | 6° |
| 2026-05-08 08:29 | -35.36589 | 149.17624 | 33473 ft | 491 kts | 6° |
| 2026-05-08 08:29 | -35.33225 | 149.18399 | 33227 ft | 492 kts | 6° |
| 2026-05-08 08:30 | -35.29853 | 149.19175 | 32980 ft | 493 kts | 6° |
| 2026-05-08 08:30 | -35.26504 | 149.20133 | 32728 ft | 495 kts | 12° |
| 2026-05-08 08:30 | -35.19898 | 149.22495 | 32239 ft | 493 kts | 13° |
| 2026-05-08 08:31 | -35.16619 | 149.23721 | 31994 ft | 492 kts | 13° |
| 2026-05-08 08:31 | -35.13351 | 149.24928 | 31746 ft | 489 kts | 13° |
| 2026-05-08 08:31 | -35.10086 | 149.26103 | 31482 ft | 488 kts | 13° |
| 2026-05-08 08:31 | -35.06831 | 149.27254 | 31065 ft | 485 kts | 13° |
| 2026-05-08 08:32 | -35.03600 | 149.28395 | 30573 ft | 482 kts | 13° |
| 2026-05-08 08:32 | -35.00389 | 149.29544 | 30078 ft | 479 kts | 13° |
| 2026-05-08 08:32 | -34.97202 | 149.30694 | 29587 ft | 476 kts | 14° |
| 2026-05-08 08:32 | -34.94035 | 149.31838 | 29103 ft | 473 kts | 13° |
| 2026-05-08 08:33 | -34.90894 | 149.32967 | 28629 ft | 469 kts | 13° |
| 2026-05-08 08:33 | -34.87770 | 149.34082 | 28164 ft | 465 kts | 13° |
| 2026-05-08 08:33 | -34.84676 | 149.35183 | 27708 ft | 462 kts | 13° |
| 2026-05-08 08:33 | -34.81607 | 149.36278 | 27263 ft | 458 kts | 13° |
| 2026-05-08 08:34 | -34.78605 | 149.37544 | 26816 ft | 456 kts | 21° |
| 2026-05-08 08:34 | -34.76726 | 149.38679 | 26524 ft | 454 kts | 29° |
| 2026-05-08 08:34 | -34.73427 | 149.41737 | 25953 ft | 448 kts | 47° |
| 2026-05-08 08:34 | -34.71476 | 149.44653 | 25528 ft | 440 kts | 60° |
| 2026-05-08 08:35 | -34.69992 | 149.47861 | 25125 ft | 433 kts | 67° |
| 2026-05-08 08:35 | -34.68650 | 149.51113 | 24711 ft | 428 kts | 68° |
| 2026-05-08 08:35 | -34.67328 | 149.54335 | 24302 ft | 425 kts | 67° |
| 2026-05-08 08:35 | -34.66420 | 149.56485 | 24029 ft | 423 kts | 66° |
| 2026-05-08 08:36 | -34.65049 | 149.59626 | 23630 ft | 419 kts | 65° |
| 2026-05-08 08:36 | -34.63681 | 149.62686 | 23242 ft | 416 kts | 65° |
| 2026-05-08 08:36 | -34.62307 | 149.65760 | 22854 ft | 412 kts | 65° |
| 2026-05-08 08:36 | -34.60959 | 149.68814 | 22472 ft | 408 kts | 66° |
| 2026-05-08 08:37 | -34.59633 | 149.71851 | 22094 ft | 405 kts | 66° |
| 2026-05-08 08:37 | -34.58324 | 149.74856 | 21722 ft | 401 kts | 65° |
| 2026-05-08 08:37 | -34.57019 | 149.77839 | 21357 ft | 400 kts | 65° |
| 2026-05-08 08:37 | -34.55712 | 149.80809 | 20986 ft | 398 kts | 65° |
| 2026-05-08 08:38 | -34.54411 | 149.83758 | 20592 ft | 396 kts | 65° |
| 2026-05-08 08:38 | -34.53107 | 149.86711 | 20035 ft | 397 kts | 65° |
| 2026-05-08 08:38 | -34.51791 | 149.89693 | 19178 ft | 406 kts | 64° |
| 2026-05-08 08:38 | -34.50446 | 149.92745 | 18477 ft | 412 kts | 64° |
| 2026-05-08 08:39 | -34.49102 | 149.95788 | 18122 ft | 407 kts | 64° |
| 2026-05-08 08:39 | -34.47766 | 149.98811 | 17877 ft | 407 kts | 64° |
| 2026-05-08 08:39 | -34.46430 | 150.01828 | 17595 ft | 406 kts | 64° |
| 2026-05-08 08:39 | -34.45115 | 150.04796 | 17260 ft | 402 kts | 64° |
| 2026-05-08 08:40 | -34.43796 | 150.07768 | 16911 ft | 398 kts | 64° |
| 2026-05-08 08:40 | -34.42491 | 150.10709 | 16559 ft | 394 kts | 64° |
| 2026-05-08 08:40 | -34.41199 | 150.13617 | 16206 ft | 390 kts | 64° |
| 2026-05-08 08:40 | -34.39920 | 150.16498 | 15856 ft | 387 kts | 64° |
| 2026-05-08 08:41 | -34.38650 | 150.19353 | 15508 ft | 383 kts | 64° |
| 2026-05-08 08:41 | -34.37393 | 150.22175 | 15164 ft | 380 kts | 64° |
| 2026-05-08 08:41 | -34.36140 | 150.24988 | 14814 ft | 377 kts | 64° |
| 2026-05-08 08:41 | -34.34900 | 150.27770 | 14485 ft | 373 kts | 64° |
| 2026-05-08 08:42 | -34.33674 | 150.30523 | 14147 ft | 370 kts | 64° |
| 2026-05-08 08:42 | -34.32455 | 150.33255 | 13826 ft | 366 kts | 64° |
| 2026-05-08 08:42 | -34.31247 | 150.35954 | 13497 ft | 363 kts | 64° |
| 2026-05-08 08:42 | -34.30044 | 150.38639 | 13167 ft | 360 kts | 64° |
| 2026-05-08 08:43 | -34.28858 | 150.41284 | 12850 ft | 356 kts | 64° |
| 2026-05-08 08:43 | -34.27698 | 150.43868 | 12543 ft | 353 kts | 65° |
| 2026-05-08 08:43 | -34.26537 | 150.46466 | 12234 ft | 349 kts | 65° |
| 2026-05-08 08:43 | -34.25390 | 150.49034 | 11930 ft | 345 kts | 65° |
| 2026-05-08 08:44 | -34.24256 | 150.51574 | 11685 ft | 339 kts | 65° |
| 2026-05-08 08:44 | -34.23156 | 150.54037 | 11550 ft | 327 kts | 65° |
| 2026-05-08 08:44 | -34.22091 | 150.56403 | 11422 ft | 315 kts | 65° |
| 2026-05-08 08:44 | -34.21068 | 150.58680 | 11274 ft | 303 kts | 65° |
| 2026-05-08 08:45 | -34.20074 | 150.60901 | 10957 ft | 299 kts | 65° |
| 2026-05-08 08:45 | -34.19089 | 150.63107 | 10569 ft | 298 kts | 65° |
| 2026-05-08 08:45 | -34.18105 | 150.65303 | 10182 ft | 296 kts | 65° |
| 2026-05-08 08:45 | -34.17120 | 150.67483 | 9812 ft | 295 kts | 65° |
| 2026-05-08 08:46 | -34.16142 | 150.69652 | 9439 ft | 292 kts | 65° |
| 2026-05-08 08:46 | -34.15172 | 150.71813 | 9095 ft | 290 kts | 65° |
| 2026-05-08 08:46 | -34.14213 | 150.73948 | 8821 ft | 289 kts | 64° |
| 2026-05-08 08:46 | -34.13251 | 150.76074 | 8553 ft | 288 kts | 64° |
| 2026-05-08 08:47 | -34.12308 | 150.78165 | 8297 ft | 286 kts | 64° |
| 2026-05-08 08:47 | -34.11361 | 150.80268 | 8034 ft | 285 kts | 64° |
| 2026-05-08 08:47 | -34.10417 | 150.82356 | 7779 ft | 283 kts | 64° |
| 2026-05-08 08:47 | -34.09477 | 150.84442 | 7531 ft | 282 kts | 64° |
| 2026-05-08 08:48 | -34.08542 | 150.86526 | 7295 ft | 281 kts | 63° |
| 2026-05-08 08:48 | -34.07608 | 150.88606 | 7060 ft | 281 kts | 63° |
| 2026-05-08 08:48 | -34.06679 | 150.90668 | 6782 ft | 279 kts | 63° |
| 2026-05-08 08:48 | -34.05753 | 150.92720 | 6583 ft | 278 kts | 63° |
| 2026-05-08 08:49 | -34.04831 | 150.94766 | 6454 ft | 277 kts | 63° |
| 2026-05-08 08:49 | -34.03994 | 150.96851 | 6317 ft | 275 kts | 75° |
| 2026-05-08 08:49 | -34.03749 | 150.99088 | 6157 ft | 264 kts | 103° |
| 2026-05-08 08:49 | -34.04289 | 151.01133 | 6042 ft | 253 kts | 124° |
| 2026-05-08 08:50 | -34.05119 | 151.02980 | 5910 ft | 253 kts | 120° |
| 2026-05-08 08:50 | -34.05354 | 151.05118 | 5742 ft | 267 kts | 85° |
| 2026-05-08 08:50 | -34.04633 | 151.07144 | 5577 ft | 269 kts | 50° |
| 2026-05-08 08:50 | -34.03239 | 151.08529 | 5490 ft | 253 kts | 30° |
| 2026-05-08 08:51 | -34.01750 | 151.09614 | 5457 ft | 249 kts | 29° |
| 2026-05-08 08:51 | -34.00358 | 151.10836 | 5312 ft | 248 kts | 35° |
| 2026-05-08 08:51 | -33.98828 | 151.11665 | 5152 ft | 237 kts | 2° |
| 2026-05-08 08:51 | -33.97228 | 151.11522 | 5030 ft | 227 kts | 344° |
| 2026-05-08 08:52 | -33.95741 | 151.10969 | 4922 ft | 221 kts | 332° |
| 2026-05-08 08:52 | -33.94319 | 151.10285 | 4846 ft | 219 kts | 330° |
| 2026-05-08 08:52 | -33.92909 | 151.09584 | 4754 ft | 219 kts | 330° |
| 2026-05-08 08:52 | -33.91504 | 151.08883 | 4655 ft | 219 kts | 330° |
| 2026-05-08 08:53 | -33.90105 | 151.08184 | 4576 ft | 218 kts | 330° |
| 2026-05-08 08:53 | -33.88646 | 151.07656 | 4476 ft | 222 kts | 345° |
| 2026-05-08 08:53 | -33.87106 | 151.07435 | 4373 ft | 223 kts | 348° |
| 2026-05-08 08:53 | -33.85566 | 151.07249 | 4274 ft | 222 kts | 348° |
| 2026-05-08 08:54 | -33.84035 | 151.07065 | 4172 ft | 221 kts | 348° |
| 2026-05-08 08:54 | -33.82506 | 151.07032 | 4060 ft | 227 kts | 5° |
| 2026-05-08 08:54 | -33.81052 | 151.07805 | 3958 ft | 232 kts | 29° |
| 2026-05-08 08:54 | -33.79726 | 151.08848 | 3837 ft | 221 kts | 30° |
| 2026-05-08 08:55 | -33.78469 | 151.09785 | 3734 ft | 205 kts | 27° |
| 2026-05-08 08:55 | -33.77301 | 151.10677 | 3630 ft | 196 kts | 40° |
| 2026-05-08 08:55 | -33.76696 | 151.12086 | 3510 ft | 193 kts | 87° |
| 2026-05-08 08:55 | -33.77045 | 151.13565 | 3387 ft | 182 kts | 135° |
| 2026-05-08 08:56 | -33.78069 | 151.14238 | 3273 ft | 167 kts | 182° |
| 2026-05-08 08:56 | -33.79204 | 151.14108 | 3148 ft | 166 kts | 194° |
| 2026-05-08 08:56 | -33.80360 | 151.13844 | 2670 ft | 171 kts | 185° |
| 2026-05-08 08:56 | -33.81565 | 151.13881 | 2258 ft | 176 kts | 169° |
| 2026-05-08 08:57 | -33.82684 | 151.14438 | 2088 ft | 171 kts | 167° |
| 2026-05-08 08:57 | -33.83815 | 151.14801 | 1882 ft | 165 kts | 173° |
| 2026-05-08 08:57 | -33.84906 | 151.15084 | 1638 ft | 154 kts | 175° |
| 2026-05-08 08:57 | -33.85932 | 151.15343 | 1454 ft | 150 kts | 174° |
| 2026-05-08 08:58 | -33.86953 | 151.15610 | 1257 ft | 150 kts | 174° |
| 2026-05-08 08:58 | -33.87971 | 151.15872 | 1055 ft | 149 kts | 174° |
| 2026-05-08 08:58 | -33.88988 | 151.16137 | 858 ft | 149 kts | 174° |
| 2026-05-08 08:58 | -33.90002 | 151.16400 | 660 ft | 149 kts | 174° |
| 2026-05-08 08:59 | -33.91011 | 151.16661 | 463 ft | 148 kts | 174° |
| 2026-05-08 08:59 | -33.92019 | 151.16922 | 267 ft | 147 kts | 174° |
| 2026-05-08 08:59 | -33.92983 | 151.17174 | 81 ft | 136 kts | 175° |
| 2026-05-08 08:59 | -33.93777 | 151.17377 | 35 ft | 85 kts | 169° |
| 2026-05-08 09:00 | -33.94185 | 151.17481 | 36 ft | 39 kts | 161° |
| 2026-05-08 09:00 | -33.94365 | 151.17578 | 35 ft | 20 kts | 148° |
| 2026-05-08 09:00 | -33.94433 | 151.17635 | 36 ft | 2 kts | 143° |
| 2026-05-08 09:00 | -33.94434 | 151.17636 | 36 ft | 0 kts | 143° |
| 2026-05-08 09:01 | -33.94433 | 151.17635 | 36 ft | 0 kts | 143° |
| 2026-05-08 09:02 | -33.94434 | 151.17636 | 36 ft | 3 kts | 143° |
| 2026-05-08 09:02 | -33.94468 | 151.17667 | 36 ft | 7 kts | 142° |
| 2026-05-08 09:02 | -33.94508 | 151.17717 | 36 ft | 9 kts | 111° |
| 2026-05-08 09:02 | -33.94506 | 151.17799 | 36 ft | 11 kts | 79° |
| 2026-05-08 09:03 | -33.94475 | 151.17890 | 35 ft | 13 kts | 40° |
| 2026-05-08 09:03 | -33.94389 | 151.17905 | 35 ft | 14 kts | 349° |
| 2026-05-08 09:03 | -33.94294 | 151.17881 | 36 ft | 15 kts | 347° |
| 2026-05-08 09:03 | -33.94188 | 151.17853 | 35 ft | 16 kts | 347° |
| 2026-05-08 09:04 | -33.94077 | 151.17824 | 36 ft | 17 kts | 347° |
| 2026-05-08 09:04 | -33.93958 | 151.17793 | 35 ft | 18 kts | 347° |
| 2026-05-08 09:04 | -33.93862 | 151.17775 | 36 ft | 11 kts | 22° |
| 2026-05-08 09:04 | -33.93823 | 151.17848 | 36 ft | 11 kts | 72° |
| 2026-05-08 09:05 | -33.93799 | 151.17944 | 35 ft | 13 kts | 74° |
| 2026-05-08 09:05 | -33.93777 | 151.18039 | 36 ft | 12 kts | 74° |
| 2026-05-08 09:05 | -33.93756 | 151.18062 | 36 ft | 4 kts | 8° |
| 2026-05-08 09:05 | -33.93719 | 151.18059 | 36 ft | 7 kts | 351° |
| 2026-05-08 09:06 | -33.93663 | 151.18051 | 36 ft | 9 kts | 359° |
| 2026-05-08 09:06 | -33.93612 | 151.18052 | 36 ft | 0 kts | 5° |
| 2026-05-08 09:06 | -33.93603 | 151.18053 | 36 ft | 4 kts | 5° |
| 2026-05-08 09:06 | -33.93575 | 151.18052 | 36 ft | 3 kts | 326° |
| 2026-05-08 09:07 | -33.93571 | 151.18043 | 36 ft | 0 kts | 279° |